Time;durP1;ratioP1;P1;durP2;ratioP2;P2;SDS_P1;SDS_P2;PMS_P1;PMS_P2;Temp;Humidity;BMP_temperature;BMP_pressure;BME280_temperature;BME280_humidity;BME280_pressure;Samples;Min_cycle;Max_cycle;Signal;HPM_P1;HPM_P2
2021/07/28 00:02:08;;;;;;;5.63;3.17;;;;;;;20.07;43.96;100711.91;3579653;40;20305;-72
2021/07/28 00:04:38;;;;;;;5.45;3.45;;;;;;;20.09;44.46;100703.38;3579765;40;20033;-73
2021/07/28 00:07:08;;;;;;;4.97;3.20;;;;;;;20.09;44.01;100706.16;3571732;40;20048;-73
2021/07/28 00:09:36;;;;;;;5.35;3.40;;;;;;;20.08;44.49;100707.22;3589837;40;20028;-73
2021/07/28 00:12:05;;;;;;;4.90;3.30;;;;;;;20.09;44.61;100706.16;3581345;39;20036;-73
2021/07/28 00:14:34;;;;;;;4.47;3.03;;;;;;;20.08;44.07;100710.84;3591161;40;20541;-73
2021/07/28 00:17:03;;;;;;;5.22;3.00;;;;;;;20.06;43.88;100704.63;3589297;40;20300;-73
2021/07/28 00:19:34;;;;;;;5.75;3.67;;;;;;;20.07;44.14;100706.34;3589229;40;20036;-72
2021/07/28 00:24:47;;;;;;;5.88;3.83;;;;;;;20.04;44.15;100694.78;3589825;40;20086;-75
2021/07/28 00:27:15;;;;;;;4.78;3.22;;;;;;;20.04;44.59;100698.41;3597075;40;20028;-74
2021/07/28 00:29:45;;;;;;;6.70;3.88;;;;;;;20.05;43.91;100693.72;3577578;40;20368;-73
2021/07/28 00:32:13;;;;;;;5.10;3.15;;;;;;;20.03;44.24;100687.50;3578017;40;20044;-74
2021/07/28 00:34:41;;;;;;;5.88;3.75;;;;;;;20.02;44.36;100686.63;3577334;40;20347;-72
2021/07/28 00:37:09;;;;;;;5.53;3.92;;;;;;;20.00;44.07;100686.00;3577593;40;20048;-74
2021/07/28 00:39:36;;;;;;;6.18;3.38;;;;;;;19.99;43.93;100677.88;3577893;40;20037;-74
2021/07/28 00:42:05;;;;;;;5.65;3.50;;;;;;;19.99;43.83;100677.88;3576890;40;20033;-72
2021/07/28 00:44:33;;;;;;;5.50;3.58;;;;;;;19.97;44.09;100679.97;3577025;40;20426;-73
2021/07/28 00:47:02;;;;;;;5.22;3.33;;;;;;;19.97;43.80;100675.28;3557446;40;20076;-73
2021/07/28 00:49:30;;;;;;;5.72;3.45;;;;;;;19.93;44.18;100674.81;3567534;40;20425;-74
2021/07/28 00:52:02;;;;;;;7.07;4.05;;;;;;;19.91;44.12;100673.31;3567164;40;20037;-72
2021/07/28 00:54:31;;;;;;;5.30;3.42;;;;;;;19.88;44.31;100674.56;3567647;40;20535;-73
2021/07/28 00:56:59;;;;;;;5.88;3.63;;;;;;;19.88;43.99;100670.91;3554646;40;20060;-74
2021/07/28 00:59:27;;;;;;;4.72;3.25;;;;;;;19.86;43.92;100661.91;3566791;40;20029;-73
2021/07/28 01:01:55;;;;;;;6.50;3.40;;;;;;;19.85;44.08;100668.53;3585537;40;20048;-73
2021/07/28 01:04:25;;;;;;;5.93;3.33;;;;;;;19.85;44.12;100666.59;3602375;23;20119;-72
2021/07/28 01:06:53;;;;;;;5.13;3.35;;;;;;;19.82;44.34;100666.16;3579734;40;20393;-72
2021/07/28 01:09:21;;;;;;;5.55;3.83;;;;;;;19.79;43.98;100664.63;3569706;40;20053;-72
2021/07/28 01:11:49;;;;;;;5.47;3.80;;;;;;;19.77;44.01;100661.19;3569535;40;20044;-72
2021/07/28 01:14:20;;;;;;;5.93;3.35;;;;;;;19.77;44.48;100660.31;3567559;40;20501;-72
2021/07/28 01:16:48;;;;;;;5.03;3.67;;;;;;;19.75;44.39;100666.09;3550480;40;20400;-72
2021/07/28 01:19:19;;;;;;;6.40;3.70;;;;;;;19.75;44.59;100655.00;3557133;40;20470;-72
2021/07/28 01:21:49;;;;;;;7.45;3.83;;;;;;;19.76;44.48;100661.41;3555738;40;20405;-71
2021/07/28 01:24:19;;;;;;;5.78;3.63;;;;;;;19.73;44.33;100656.25;3556958;40;20112;-71
2021/07/28 01:26:48;;;;;;;5.38;3.50;;;;;;;19.70;44.21;100653.84;3556231;40;20322;-72
2021/07/28 01:29:16;;;;;;;6.60;3.50;;;;;;;19.67;44.09;100655.13;3556483;40;20085;-71
2021/07/28 01:31:44;;;;;;;5.13;3.45;;;;;;;19.67;44.18;100659.81;3537055;40;20034;-72
2021/07/28 01:34:13;;;;;;;5.68;3.70;;;;;;;19.67;44.01;100651.47;3557337;40;20026;-71
2021/07/28 01:36:41;;;;;;;6.43;3.85;;;;;;;19.65;44.20;100645.25;3556405;40;20042;-72
2021/07/28 01:39:09;;;;;;;5.80;3.90;;;;;;;19.64;44.18;100641.63;3557190;40;20034;-72
2021/07/28 01:41:38;;;;;;;5.70;3.58;;;;;;;19.66;44.54;100641.44;3575148;40;20060;-71
2021/07/28 01:44:06;;;;;;;5.95;3.40;;;;;;;19.62;43.93;100643.72;3576832;40;20033;-72
2021/07/28 01:46:34;;;;;;;5.43;3.53;;;;;;;19.62;44.45;100637.31;3576579;40;20029;-72
2021/07/28 01:49:02;;;;;;;6.68;3.35;;;;;;;19.62;44.27;100637.31;3577067;40;20026;-72
2021/07/28 01:51:30;;;;;;;6.65;3.65;;;;;;;19.61;44.15;100642.00;3576472;40;20037;-72
2021/07/28 01:53:58;;;;;;;6.07;3.72;;;;;;;19.61;44.01;100638.38;3556245;40;20113;-72
2021/07/28 01:56:38;;;;;;;5.65;3.83;;;;;;;19.61;44.19;100641.16;3556556;40;20478;-72
2021/07/28 01:59:07;;;;;;;5.55;3.47;;;;;;;19.61;44.55;100646.69;3564485;40;20040;-71
2021/07/28 02:01:35;;;;;;;6.20;3.67;;;;;;;19.60;44.53;100636.66;3557748;40;20056;-71
2021/07/28 02:04:03;;;;;;;5.28;3.55;;;;;;;19.60;44.31;100639.44;3556169;40;20070;-71
2021/07/28 02:06:32;;;;;;;4.63;3.45;;;;;;;19.60;44.52;100639.44;3565447;40;20029;-72
2021/07/28 02:09:00;;;;;;;5.00;3.50;;;;;;;19.58;44.67;100631.31;3558838;40;20041;-72
2021/07/28 02:11:28;;;;;;;4.78;3.35;;;;;;;19.58;44.03;100633.25;3551840;40;20439;-72
2021/07/28 02:13:56;;;;;;;5.57;3.60;;;;;;;19.56;44.77;100634.28;3566654;40;20049;-72
2021/07/28 02:16:25;;;;;;;5.25;3.58;;;;;;;19.57;44.34;100632.38;3546096;40;20411;-71
2021/07/28 02:18:53;;;;;;;4.60;3.33;;;;;;;19.55;44.94;100637.25;3542207;40;20031;-72
2021/07/28 02:21:22;;;;;;;5.80;3.55;;;;;;;19.54;44.91;100636.41;3545949;40;20136;-71
2021/07/28 02:23:50;;;;;;;6.30;3.47;;;;;;;19.53;44.90;100647.69;3546536;40;20030;-72
2021/07/28 02:26:18;;;;;;;5.85;3.58;;;;;;;19.52;44.79;100640.41;3545959;40;20050;-72
2021/07/28 02:28:46;;;;;;;4.82;3.45;;;;;;;19.50;44.96;100637.84;3536325;40;20426;-72
2021/07/28 02:31:14;;;;;;;5.90;3.40;;;;;;;19.50;44.62;100645.28;3553653;40;20093;-72
2021/07/28 02:33:43;;;;;;;6.03;3.60;;;;;;;19.51;44.79;100641.50;3575981;40;20056;-72
2021/07/28 02:36:11;;;;;;;5.65;3.63;;;;;;;19.49;44.64;100636.09;3575709;40;20041;-72
2021/07/28 02:38:39;;;;;;;5.93;3.75;;;;;;;19.48;44.74;100626.06;3581293;40;20037;-72
2021/07/28 02:41:07;;;;;;;6.28;4.10;;;;;;;19.48;44.41;100630.75;3574293;40;20048;-72
2021/07/28 02:43:35;;;;;;;5.47;3.20;;;;;;;19.48;44.80;100636.28;3567737;40;20033;-72
2021/07/28 02:46:02;;;;;;;5.80;3.63;;;;;;;19.47;44.59;100631.78;3575433;40;20053;-73
2021/07/28 02:48:30;;;;;;;6.45;3.72;;;;;;;19.46;44.64;100630.94;3576568;40;20033;-72
2021/07/28 02:51:00;;;;;;;7.55;3.63;;;;;;;19.46;44.42;100622.59;3578254;40;20033;-72
2021/07/28 02:53:28;;;;;;;7.65;3.42;;;;;;;19.44;44.89;100632.19;3578184;40;20296;-73
2021/07/28 02:55:55;;;;;;;5.28;3.25;;;;;;;19.42;44.52;100628.75;3578373;40;20033;-72
2021/07/28 02:58:23;;;;;;;6.13;3.92;;;;;;;19.40;45.04;100625.31;3578363;40;20059;-72
2021/07/28 03:00:53;;;;;;;6.22;3.53;;;;;;;19.41;44.95;100625.13;3579013;40;20055;-72
2021/07/28 03:03:22;;;;;;;6.05;3.75;;;;;;;19.38;45.20;100625.50;3587912;40;20400;-72
2021/07/28 03:05:50;;;;;;;7.90;3.85;;;;;;;19.37;44.75;100620.16;3588395;40;20028;-72
2021/07/28 03:08:20;;;;;;;5.80;3.60;;;;;;;19.38;44.84;100625.50;3585748;40;20287;-72
2021/07/28 03:10:47;;;;;;;5.68;3.80;;;;;;;19.35;44.76;100619.50;3587744;40;20040;-72
2021/07/28 03:13:15;;;;;;;7.18;3.92;;;;;;;19.36;44.89;100621.19;3584441;40;20412;-72
2021/07/28 03:15:43;;;;;;;6.32;3.67;;;;;;;19.37;44.86;100620.16;3588606;40;20048;-72
2021/07/28 03:18:11;;;;;;;6.18;3.78;;;;;;;19.37;45.21;100617.38;3588573;40;20125;-72
2021/07/28 03:20:39;;;;;;;6.38;3.55;;;;;;;19.37;45.30;100611.81;3571493;39;20049;-72
2021/07/28 03:23:07;;;;;;;5.72;3.75;;;;;;;19.38;45.25;100619.09;3577777;40;20583;-73
2021/07/28 03:25:37;;;;;;;6.10;4.03;;;;;;;19.39;45.05;100610.59;3555849;40;20060;-72
2021/07/28 03:28:05;;;;;;;7.20;4.00;;;;;;;19.38;44.98;100608.88;3575997;40;20040;-75
2021/07/28 03:30:33;;;;;;;5.80;3.85;;;;;;;19.38;44.92;100610.78;3565176;40;20311;-72
2021/07/28 03:33:01;;;;;;;6.10;3.88;;;;;;;19.38;45.31;100613.56;3586670;40;20150;-72
2021/07/28 03:35:29;;;;;;;5.70;3.80;;;;;;;19.38;45.12;100613.56;3567511;40;20025;-72
2021/07/28 03:37:57;;;;;;;7.32;4.13;;;;;;;19.37;45.17;100597.97;3574711;40;20660;-72
2021/07/28 03:40:25;;;;;;;6.88;4.00;;;;;;;19.37;45.34;100600.72;3579416;40;20030;-72
2021/07/28 03:42:54;;;;;;;5.88;3.70;;;;;;;19.38;45.11;100605.22;3572576;40;20075;-71
2021/07/28 03:45:22;;;;;;;6.10;4.07;;;;;;;19.34;44.72;100613.09;3573546;40;20033;-73
2021/07/28 03:47:50;;;;;;;6.75;3.88;;;;;;;19.33;45.43;100611.38;3578736;40;20032;-72
2021/07/28 03:50:18;;;;;;;5.88;4.15;;;;;;;19.32;45.48;100606.88;3579197;40;20374;-72
2021/07/28 03:52:45;;;;;;;7.28;4.32;;;;;;;19.30;45.41;100602.56;3588085;40;20099;-71
2021/07/28 03:55:14;;;;;;;8.23;4.00;;;;;;;19.29;44.95;100610.03;3589455;40;20114;-72
2021/07/28 03:57:41;;;;;;;7.00;3.78;;;;;;;19.28;44.90;100602.78;3588581;39;20130;-72
2021/07/28 04:00:12;;;;;;;6.70;4.10;;;;;;;19.28;45.34;100608.31;3589745;40;20525;-72
2021/07/28 04:02:40;;;;;;;5.82;4.40;;;;;;;19.25;45.46;100603.19;3589071;40;20032;-72
2021/07/28 04:05:09;;;;;;;6.28;4.00;;;;;;;19.25;45.34;100610.63;3589085;40;20068;-72
2021/07/28 04:07:37;;;;;;;5.30;3.70;;;;;;;19.24;45.20;100614.47;3582339;39;20044;-72
2021/07/28 04:10:06;;;;;;;7.55;4.13;;;;;;;19.24;45.12;100617.22;3579779;40;20033;-72
2021/07/28 04:12:33;;;;;;;5.35;3.60;;;;;;;19.22;45.23;100611.88;3581051;39;20035;-72
2021/07/28 04:15:01;;;;;;;6.55;4.00;;;;;;;19.22;45.41;100611.88;3579228;40;20033;-72
2021/07/28 04:17:31;;;;;;;6.30;3.97;;;;;;;19.24;45.44;100620.88;3579018;40;20048;-72
2021/07/28 04:19:59;;;;;;;9.15;4.47;;;;;;;19.23;45.50;100616.38;3579233;40;20040;-72
2021/07/28 04:22:28;;;;;;;6.72;4.10;;;;;;;19.23;45.41;100621.91;3569047;40;20048;-72
2021/07/28 04:24:55;;;;;;;6.43;4.22;;;;;;;19.23;45.17;100619.16;3579032;40;20114;-72
2021/07/28 04:27:27;;;;;;;7.03;4.20;;;;;;;19.24;45.26;100618.09;3572338;40;20189;-72
2021/07/28 04:29:56;;;;;;;7.20;4.68;;;;;;;19.23;45.50;100623.81;3573471;40;20037;-73
2021/07/28 04:32:24;;;;;;;5.75;3.75;;;;;;;19.25;45.13;100630.06;3578676;40;20040;-72
2021/07/28 04:34:53;;;;;;;6.93;4.43;;;;;;;19.28;45.13;100624.09;3576090;40;20677;-72
2021/07/28 04:37:21;;;;;;;6.35;4.20;;;;;;;19.26;45.83;100627.09;3555066;40;20406;-72
2021/07/28 04:39:49;;;;;;;6.65;4.05;;;;;;;19.27;45.79;100630.69;3572468;40;20150;-72
2021/07/28 04:42:17;;;;;;;5.38;3.65;;;;;;;19.26;45.33;100627.09;3578159;40;20056;-72
2021/07/28 04:44:45;;;;;;;5.90;4.32;;;;;;;19.28;45.36;100633.28;3576540;40;20032;-72
2021/07/28 04:47:13;;;;;;;6.03;4.03;;;;;;;19.27;45.29;100634.31;3570998;40;20393;-71
2021/07/28 04:49:41;;;;;;;5.50;3.88;;;;;;;19.29;45.75;100636.91;3578812;40;20044;-72
2021/07/28 04:52:11;;;;;;;6.72;4.18;;;;;;;19.33;45.52;100641.03;3570933;40;20213;-72
2021/07/28 04:54:39;;;;;;;6.68;4.35;;;;;;;19.30;45.25;100636.72;3570084;40;20289;-72
2021/07/28 04:57:07;;;;;;;6.22;3.92;;;;;;;19.31;45.43;100635.66;3567958;40;20049;-71
2021/07/28 04:59:35;;;;;;;5.75;4.20;;;;;;;19.32;45.74;100637.38;3571891;40;20046;-72
2021/07/28 05:02:03;;;;;;;6.05;3.88;;;;;;;19.33;45.56;100638.25;3576340;40;20475;-73
2021/07/28 05:04:31;;;;;;;6.53;4.10;;;;;;;19.32;45.30;100637.38;3574091;40;20033;-72
2021/07/28 05:06:59;;;;;;;6.15;4.10;;;;;;;19.33;45.29;100639.13;3569687;40;20030;-73
2021/07/28 05:09:28;;;;;;;7.70;4.10;;;;;;;19.36;45.53;100640.63;3572895;40;20029;-72
2021/07/28 05:11:56;;;;;;;7.32;4.15;;;;;;;19.33;45.74;100636.34;3578526;40;20037;-72
2021/07/28 05:14:24;;;;;;;5.43;3.83;;;;;;;19.34;45.72;100626.09;3574672;40;20040;-72
2021/07/28 05:16:52;;;;;;;7.07;4.03;;;;;;;19.34;45.73;100629.75;3571642;40;20426;-72
2021/07/28 05:19:20;;;;;;;6.72;4.45;;;;;;;19.33;45.62;100635.47;3589333;40;20037;-72
2021/07/28 05:21:48;;;;;;;7.40;4.78;;;;;;;19.33;45.20;100633.56;3586797;39;20044;-72
2021/07/28 05:24:15;;;;;;;5.82;4.05;;;;;;;19.32;45.83;100625.44;3582618;40;20066;-73
2021/07/28 05:26:45;;;;;;;6.03;4.07;;;;;;;19.34;45.12;100632.50;3588709;40;20327;-72
2021/07/28 05:29:13;;;;;;;6.45;3.90;;;;;;;19.32;45.52;100629.06;3588756;40;20037;-72
2021/07/28 05:31:41;;;;;;;6.53;4.30;;;;;;;19.33;45.80;100624.38;3588222;40;20052;-72
2021/07/28 05:34:10;;;;;;;6.07;4.05;;;;;;;19.32;45.28;100615.19;3585881;40;20319;-73
2021/07/28 05:36:38;;;;;;;7.35;4.72;;;;;;;19.33;45.73;100621.59;3588705;40;20109;-72
2021/07/28 05:39:06;;;;;;;6.13;4.28;;;;;;;19.33;46.01;100619.69;3588639;40;20078;-72
2021/07/28 05:41:34;;;;;;;6.60;4.45;;;;;;;19.33;45.99;100616.94;3587566;39;20052;-73
2021/07/28 05:44:07;;;;;;;7.07;4.18;;;;;;;19.35;45.97;100617.56;3588213;40;20060;-73
2021/07/28 05:46:35;;;;;;;6.18;4.28;;;;;;;19.32;45.94;100609.66;3588423;40;20473;-73
2021/07/28 05:49:04;;;;;;;6.25;4.22;;;;;;;19.32;45.80;100620.75;3578590;40;20025;-72
2021/07/28 05:51:32;;;;;;;6.30;3.90;;;;;;;19.30;46.07;100617.31;3587669;40;20036;-73
2021/07/28 05:54:00;;;;;;;5.07;3.50;;;;;;;19.31;46.01;100609.84;3588797;40;20059;-73
2021/07/28 05:56:28;;;;;;;5.82;3.63;;;;;;;19.30;46.01;100620.06;3588545;39;20315;-73
2021/07/28 05:58:56;;;;;;;5.47;3.83;;;;;;;19.30;45.58;100610.91;3588707;40;20098;-74
2021/07/28 06:01:25;;;;;;;5.40;3.88;;;;;;;19.33;45.73;100611.38;3583296;40;20044;-72
2021/07/28 06:03:53;;;;;;;5.28;3.85;;;;;;;19.30;45.80;100611.75;3578628;40;20134;-72
2021/07/28 06:06:25;;;;;;;5.97;4.13;;;;;;;19.30;45.98;100608.13;3586815;40;20063;-71
2021/07/28 06:08:54;;;;;;;5.32;3.55;;;;;;;19.29;46.15;100604.50;3587180;40;20742;-68
2021/07/28 06:11:22;;;;;;;6.72;4.30;;;;;;;19.32;46.17;100608.78;3595432;40;20092;-68
2021/07/28 06:13:50;;;;;;;6.72;4.13;;;;;;;19.32;45.75;100615.19;3596313;40;20047;-68
2021/07/28 06:16:19;;;;;;;5.57;3.92;;;;;;;19.32;46.05;100615.19;3595800;40;20551;-67
2021/07/28 06:18:48;;;;;;;6.65;4.15;;;;;;;19.34;45.90;100606.69;3596580;40;20040;-68
2021/07/28 06:21:16;;;;;;;7.65;4.25;;;;;;;19.32;45.70;100604.09;3595681;40;20110;-68
2021/07/28 06:23:48;;;;;;;6.18;4.00;;;;;;;19.33;45.70;100610.50;3596484;40;20032;-68
2021/07/28 06:26:16;;;;;;;6.78;3.65;;;;;;;19.34;45.81;100603.91;3595407;40;20048;-68
2021/07/28 06:28:44;;;;;;;6.25;4.15;;;;;;;19.34;45.80;100607.56;3596446;40;20028;-68
2021/07/28 06:31:12;;;;;;;5.90;3.65;;;;;;;19.35;46.35;100605.63;3594776;40;20178;-68
2021/07/28 06:33:40;;;;;;;6.18;3.80;;;;;;;19.36;45.81;100604.56;3595576;40;20032;-68
2021/07/28 06:36:09;;;;;;;6.25;3.72;;;;;;;19.38;46.19;100617.19;3594710;40;20055;-68
2021/07/28 06:38:37;;;;;;;5.65;3.42;;;;;;;19.38;45.85;100619.09;3588121;40;20122;-68
2021/07/28 06:41:06;;;;;;;5.70;3.72;;;;;;;19.38;46.19;100619.09;3586743;39;20056;-68
2021/07/28 06:43:33;;;;;;;5.13;3.35;;;;;;;19.40;45.99;100619.78;3587406;40;20033;-68
2021/07/28 06:46:02;;;;;;;6.32;3.55;;;;;;;19.40;46.28;100619.78;3586876;39;20052;-68
2021/07/28 06:48:30;;;;;;;6.32;3.60;;;;;;;19.41;46.81;100621.50;3577245;40;20400;-68
2021/07/28 06:50:58;;;;;;;5.90;3.38;;;;;;;19.42;46.41;100614.91;3579476;40;20377;-68
2021/07/28 06:53:27;;;;;;;5.90;3.50;;;;;;;19.45;46.01;100617.25;3576898;40;20033;-68
2021/07/28 06:55:55;;;;;;;5.60;3.28;;;;;;;19.42;46.54;100621.31;3576636;40;20130;-68
2021/07/28 06:58:23;;;;;;;5.50;3.70;;;;;;;19.43;46.10;100616.63;3578572;40;20037;-68
2021/07/28 07:00:51;;;;;;;5.85;3.40;;;;;;;19.44;46.62;100619.16;3584178;40;20287;-68
2021/07/28 07:03:19;;;;;;;6.82;3.40;;;;;;;19.45;46.18;100614.47;3588686;40;20039;-68
2021/07/28 07:05:48;;;;;;;5.32;3.67;;;;;;;19.45;46.40;100614.47;3585014;40;20437;-68
2021/07/28 07:08:16;;;;;;;5.57;3.55;;;;;;;19.46;46.39;100607.88;3588667;40;20029;-68
2021/07/28 07:10:45;;;;;;;6.95;3.83;;;;;;;19.49;46.50;100610.28;3588393;39;20056;-68
2021/07/28 07:13:13;;;;;;;6.90;3.63;;;;;;;19.48;46.40;100605.78;3587921;40;20181;-68
2021/07/28 07:15:41;;;;;;;5.88;3.45;;;;;;;19.49;46.64;100611.13;3588652;39;20080;-68
2021/07/28 07:18:09;;;;;;;5.88;3.83;;;;;;;19.50;46.44;100612.00;3685318;22;20038;-73
2021/07/28 07:20:37;;;;;;;5.90;3.75;;;;;;;19.52;46.95;100607.13;3559910;40;20423;-74
2021/07/28 07:23:05;;;;;;;6.20;3.55;;;;;;;19.53;46.88;100608.84;3559407;40;20054;-74
2021/07/28 07:25:33;;;;;;;6.45;3.97;;;;;;;19.54;46.98;100605.00;3558523;40;21104;-73
2021/07/28 07:28:05;;;;;;;4.85;3.40;;;;;;;19.59;46.76;100605.31;3559334;40;20246;-74
2021/07/28 07:30:34;;;;;;;6.00;3.40;;;;;;;19.56;46.77;100603.75;3558481;40;20138;-73
2021/07/28 07:35:47;;;;;;;4.90;3.13;;;;;;;19.62;46.94;100604.88;3557994;40;20112;-74
2021/07/28 07:38:15;;;;;;;4.82;3.22;;;;;;;19.66;46.70;100606.22;3558980;40;20070;-73
2021/07/28 07:40:43;;;;;;;5.20;3.30;;;;;;;19.69;46.60;100599.41;3559305;40;20371;-73
2021/07/28 07:43:12;;;;;;;5.05;2.88;;;;;;;19.74;46.77;100608.88;3558209;40;20325;-73
2021/07/28 07:45:40;;;;;;;7.38;3.60;;;;;;;19.75;47.23;100615.28;3558685;40;20054;-72
2021/07/28 07:48:08;;;;;;;6.45;3.58;;;;;;;19.77;47.05;100622.31;3554607;40;20060;-72
2021/07/28 07:50:36;;;;;;;6.00;3.60;;;;;;;19.79;46.77;100644.34;3557215;40;20420;-71
2021/07/28 07:53:08;;;;;;;5.45;3.47;;;;;;;19.79;46.77;100666.53;3556764;40;20288;-73
2021/07/28 07:55:36;;;;;;;4.90;3.15;;;;;;;19.83;46.64;100662.31;3554882;40;20781;-72
2021/07/28 07:58:04;;;;;;;4.65;2.50;;;;;;;19.81;46.33;100665.28;3549560;40;20046;-68
2021/07/28 08:00:33;;;;;;;4.28;2.45;;;;;;;19.80;46.35;100663.56;3554448;40;20534;-70
2021/07/28 08:03:01;;;;;;;4.63;2.25;;;;;;;19.73;45.72;100664.56;3553404;40;20082;-71
2021/07/28 08:05:29;;;;;;;3.17;1.90;;;;;;;19.69;46.34;100669.63;3556063;40;20064;-71
2021/07/28 08:07:57;;;;;;;6.60;2.15;;;;;;;19.65;46.30;100657.22;3556886;40;20049;-71
2021/07/28 08:10:25;;;;;;;4.00;2.03;;;;;;;19.60;45.95;100661.63;3556772;40;20301;-71
2021/07/28 08:12:53;;;;;;;3.25;2.15;;;;;;;19.55;46.38;100651.13;3557322;40;20049;-71
2021/07/28 08:15:21;;;;;;;3.67;2.10;;;;;;;19.51;46.61;100650.66;3558041;40;20401;-72
2021/07/28 08:17:51;;;;;;;3.72;2.20;;;;;;;19.49;46.59;100646.34;3556817;40;20034;-72
2021/07/28 08:20:19;;;;;;;4.20;2.08;;;;;;;19.43;46.10;100639.63;3557749;40;20324;-72
2021/07/28 08:22:47;;;;;;;3.70;2.40;;;;;;;19.41;46.20;100640.91;3557051;40;20645;-72
2021/07/28 08:25:15;;;;;;;4.07;2.13;;;;;;;19.37;46.32;100637.66;3557852;40;20050;-72
2021/07/28 08:27:42;;;;;;;4.13;2.17;;;;;;;19.35;46.84;100644.47;3557021;40;20061;-72
2021/07/28 08:30:13;;;;;;;5.57;2.42;;;;;;;19.35;47.08;100655.56;3557669;40;20049;-72
2021/07/28 08:32:42;;;;;;;3.30;2.33;;;;;;;19.31;46.86;100659.78;3557117;40;20042;-72
2021/07/28 08:35:11;;;;;;;3.90;2.42;;;;;;;19.33;47.54;100649.34;3557984;40;20310;-72
2021/07/28 08:37:40;;;;;;;3.85;2.38;;;;;;;19.33;47.62;100657.66;3557059;40;20070;-72
2021/07/28 08:40:10;;;;;;;4.22;2.58;;;;;;;19.37;48.29;100662.63;3557313;40;20131;-72
2021/07/28 08:42:40;;;;;;;3.90;2.50;;;;;;;19.39;48.13;100657.75;3557662;40;20052;-72
2021/07/28 08:45:09;;;;;;;5.15;2.60;;;;;;;19.45;48.72;100656.94;3555937;40;20416;-72
2021/07/28 08:47:38;;;;;;;4.43;2.40;;;;;;;19.52;48.86;100662.59;3558796;40;20045;-72
2021/07/28 08:50:06;;;;;;;5.10;2.83;;;;;;;19.61;49.09;100655.88;3555490;40;20057;-71
2021/07/28 08:52:36;;;;;;;4.20;2.72;;;;;;;19.74;48.87;100657.97;3556991;40;20058;-72
2021/07/28 08:55:06;;;;;;;3.15;2.10;;;;;;;19.84;49.37;100669.59;3556930;40;20046;-72
2021/07/28 08:57:35;;;;;;;4.78;2.67;;;;;;;19.97;49.13;100655.84;3557207;40;20041;-72
2021/07/28 09:00:07;;;;;;;4.22;2.67;;;;;;;20.11;49.00;100649.34;3556457;40;20061;-72
2021/07/28 09:02:34;;;;;;;3.55;2.50;;;;;;;20.21;49.45;100647.13;3556984;40;20081;-72
2021/07/28 09:05:03;;;;;;;4.25;2.35;;;;;;;20.37;48.84;100651.53;3558573;40;20045;-72
2021/07/28 09:07:40;;;;;;;5.63;2.88;;;;;;;20.54;48.17;100652.06;3557148;40;20448;-72
2021/07/28 09:10:13;;;;;;;4.05;2.80;;;;;;;20.65;47.78;100654.31;3554421;40;20053;-72
2021/07/28 09:12:44;;;;;;;4.85;3.15;;;;;;;20.73;47.56;100651.38;3556990;40;20132;-73
2021/07/28 09:15:15;;;;;;;4.85;2.80;;;;;;;20.83;47.86;100648.22;3558001;40;20056;-72
2021/07/28 09:17:49;;;;;;;4.50;2.70;;;;;;;20.91;47.83;100651.69;3556555;40;20131;-72
2021/07/28 09:20:25;;;;;;;4.30;2.65;;;;;;;21.05;47.48;100653.50;3552780;40;20046;-72
2021/07/28 09:23:11;;;;;;;4.38;2.22;;;;;;;21.14;47.39;100647.78;3564095;40;20297;-72
2021/07/28 09:25:39;;;;;;;4.70;2.30;;;;;;;21.24;47.32;100651.91;3556811;40;20034;-72
2021/07/28 09:28:19;;;;;;;4.35;2.67;;;;;;;21.39;46.97;100657.28;3557555;40;20431;-72
2021/07/28 09:30:47;;;;;;;3.92;2.50;;;;;;;21.48;47.41;100660.75;3545838;40;20384;-72
2021/07/28 09:33:15;;;;;;;4.45;2.60;;;;;;;21.58;47.17;100648.16;3570592;40;20399;-72
2021/07/28 09:36:17;;;;;;;4.32;2.70;;;;;;;21.70;45.98;100652.06;3556915;40;20060;-72
2021/07/28 09:38:46;;;;;;;4.13;2.35;;;;;;;21.81;46.15;100647.81;3564967;40;20054;-72
2021/07/28 09:41:18;;;;;;;4.82;2.60;;;;;;;21.91;45.91;100642.66;3556372;40;20140;-73
2021/07/28 09:43:50;;;;;;;5.18;3.00;;;;;;;22.01;45.33;100650.63;3557982;40;20053;-72
2021/07/28 09:46:29;;;;;;;5.05;2.65;;;;;;;22.11;44.98;100649.13;3556829;40;20038;-72
2021/07/28 09:48:59;;;;;;;3.50;2.45;;;;;;;22.18;45.29;100649.13;3556472;40;20038;-72
2021/07/28 09:51:34;;;;;;;5.10;2.55;;;;;;;22.30;44.44;100649.38;3556375;40;20068;-72
2021/07/28 09:54:05;;;;;;;3.40;2.33;;;;;;;22.35;44.37;100642.09;3556271;40;20294;-72
2021/07/28 09:56:39;;;;;;;4.47;2.80;;;;;;;22.41;44.29;100635.66;3556510;40;20038;-72
2021/07/28 09:59:07;;;;;;;3.58;2.38;;;;;;;22.48;44.88;100630.91;3557196;40;20409;-72
2021/07/28 10:01:37;;;;;;;3.10;2.03;;;;;;;22.58;44.32;100641.63;3556959;40;20316;-72
2021/07/28 10:04:06;;;;;;;4.22;2.55;;;;;;;22.68;43.63;100633.69;3557050;40;20164;-72
2021/07/28 10:06:41;;;;;;;4.85;2.78;;;;;;;22.76;42.91;100632.59;3556128;40;20073;-72
2021/07/28 10:09:11;;;;;;;4.78;2.42;;;;;;;22.84;42.47;100621.25;3557501;40;20232;-72
2021/07/28 10:11:41;;;;;;;3.60;2.40;;;;;;;22.88;42.35;100617.81;3556222;40;20123;-72
2021/07/28 10:14:10;;;;;;;3.70;2.38;;;;;;;22.96;42.08;100613.06;3557541;40;20416;-72
2021/07/28 10:16:38;;;;;;;3.35;2.22;;;;;;;22.99;41.87;100616.25;3556401;40;20046;-72
2021/07/28 10:19:07;;;;;;;3.33;2.30;;;;;;;23.04;41.62;100616.47;3557017;40;20038;-72
2021/07/28 10:21:50;;;;;;;3.33;2.35;;;;;;;23.11;41.30;100610.84;3556319;40;20305;-72
2021/07/28 10:24:19;;;;;;;4.15;2.40;;;;;;;23.19;41.26;100613.41;3555658;40;20053;-72
2021/07/28 10:26:51;;;;;;;4.05;2.53;;;;;;;23.28;40.24;100615.72;3556202;40;20038;-72
2021/07/28 10:29:25;;;;;;;3.90;2.15;;;;;;;23.31;40.08;100614.41;3557650;40;20061;-72
2021/07/28 10:31:54;;;;;;;3.75;2.38;;;;;;;23.35;39.80;100607.31;3555906;40;20038;-72
2021/07/28 10:34:27;;;;;;;2.80;1.83;;;;;;;23.41;39.03;100620.38;3556704;40;20075;-72
2021/07/28 10:36:58;;;;;;;3.47;2.25;;;;;;;23.44;38.80;100611.56;3555054;40;20054;-73
2021/07/28 10:39:51;;;;;;;3.20;2.00;;;;;;;23.45;38.32;100601.25;3556993;40;20061;-72
2021/07/28 10:42:19;;;;;;;4.43;2.22;;;;;;;23.45;38.50;100613.28;3556802;40;20301;-72
2021/07/28 10:45:05;;;;;;;3.28;1.90;;;;;;;23.51;38.03;100611.53;3558387;40;20394;-72
2021/07/28 10:47:38;;;;;;;4.05;1.88;;;;;;;23.55;36.23;100608.06;3556743;40;20038;-73
2021/07/28 10:50:08;;;;;;;3.10;1.90;;;;;;;23.55;36.75;100607.25;3557620;40;20316;-73
2021/07/28 10:52:44;;;;;;;3.35;1.83;;;;;;;23.59;36.04;100608.50;3572256;40;20042;-73
2021/07/28 10:55:26;;;;;;;3.33;1.70;;;;;;;23.60;35.85;100605.47;3554584;40;20084;-72
2021/07/28 10:58:26;;;;;;;4.78;1.70;;;;;;;23.56;36.26;100603.34;3553451;40;20034;-76
2021/07/28 11:00:57;;;;;;;2.83;1.85;;;;;;;23.57;36.99;100593.88;3551863;40;20038;-74
2021/07/28 11:03:36;;;;;;;3.38;1.83;;;;;;;23.63;36.48;100601.38;3556604;40;20309;-74
2021/07/28 11:06:28;;;;;;;3.20;1.77;;;;;;;23.62;36.70;100597.75;3559304;40;20057;-76
2021/07/28 11:09:14;;;;;;;3.67;1.85;;;;;;;23.67;36.33;100600.69;3555713;40;20412;-76
2021/07/28 11:11:47;;;;;;;2.60;1.67;;;;;;;23.73;36.12;100601.72;3555574;40;20405;-75
2021/07/28 11:14:15;;;;;;;3.10;1.92;;;;;;;23.76;36.65;100587.31;3554843;40;20059;-75
2021/07/28 11:16:51;;;;;;;2.47;1.55;;;;;;;23.85;36.69;100596.28;3559616;40;20050;-75
2021/07/28 11:19:20;;;;;;;3.55;1.60;;;;;;;23.88;36.59;100590.25;3564550;40;20041;-75
2021/07/28 11:21:48;;;;;;;2.80;1.63;;;;;;;23.95;36.30;100596.66;3564060;40;20038;-75
2021/07/28 11:24:17;;;;;;;3.80;1.90;;;;;;;23.98;35.35;100591.44;3567507;40;20054;-76
2021/07/28 11:26:47;;;;;;;4.85;1.90;;;;;;;24.00;35.11;100588.44;3560214;40;20057;-75
2021/07/28 11:29:17;;;;;;;3.10;1.55;;;;;;;24.01;34.43;100587.34;3562997;40;20049;-76
2021/07/28 11:31:48;;;;;;;2.58;1.65;;;;;;;23.99;35.30;100595.09;3563880;40;20446;-77
2021/07/28 11:34:19;;;;;;;2.30;1.60;;;;;;;23.96;35.10;100601.16;3564921;40;20068;-76
2021/07/28 11:36:58;;;;;;;2.42;1.50;;;;;;;23.98;34.72;100591.44;3557944;40;20049;-76
2021/07/28 11:39:27;;;;;;;3.55;1.80;;;;;;;23.93;34.31;100588.47;3566880;40;20470;-72
2021/07/28 11:42:04;;;;;;;3.22;1.60;;;;;;;23.94;34.04;100597.72;3552919;40;20285;-72